createdAt,value
2023-04-21T00:00:15.038Z,12.87
2023-04-21T00:01:15.045Z,14.27
2023-04-21T00:02:15.037Z,13.80
2023-04-21T00:03:15.180Z,13.47
2023-04-21T00:04:15.361Z,13.51
2023-04-21T00:05:15.290Z,13.22
2023-04-21T00:06:15.166Z,12.61
2023-04-21T00:07:15.190Z,12.75
2023-04-21T00:08:15.250Z,13.14
2023-04-21T00:09:15.200Z,13.06
2023-04-21T00:10:15.201Z,12.95
2023-04-21T00:11:15.273Z,13.15
2023-04-21T00:12:15.277Z,13.71
2023-04-21T00:13:15.363Z,14.32
2023-04-21T00:14:15.279Z,13.55
2023-04-21T00:15:15.366Z,14.47
2023-04-21T00:16:15.398Z,13.24
2023-04-21T00:17:15.352Z,13.90
2023-04-21T00:18:15.363Z,13.68
2023-04-21T00:19:15.368Z,14.02
2023-04-21T00:20:15.374Z,14.53
2023-04-21T00:21:15.386Z,13.47
2023-04-21T00:22:15.425Z,13.87
2023-04-21T00:23:15.485Z,13.43
2023-04-21T00:24:15.516Z,13.65
2023-04-21T00:25:15.533Z,14.15
2023-04-21T00:26:15.613Z,14.90
2023-04-21T00:27:15.664Z,14.16
2023-04-21T00:28:15.676Z,15.27
2023-04-21T00:29:15.739Z,14.59
2023-04-21T00:30:15.760Z,15.15
2023-04-21T00:31:15.793Z,14.29
2023-04-21T00:32:15.775Z,15.06
2023-04-21T00:33:15.837Z,14.13
2023-04-21T00:34:15.868Z,14.23
2023-04-21T00:35:15.894Z,15.62
2023-04-21T00:36:15.962Z,14.05
2023-04-21T00:37:15.946Z,13.11
2023-04-21T00:38:16.007Z,14.75
2023-04-21T00:39:16.109Z,14.27
2023-04-21T00:40:16.075Z,15.62
2023-04-21T00:41:16.065Z,14.37
2023-04-21T00:42:16.241Z,13.55
2023-04-21T00:43:16.152Z,13.56
2023-04-21T00:44:16.113Z,15.06
2023-04-21T00:45:16.215Z,13.75
2023-04-21T00:46:16.172Z,15.28
2023-04-21T00:47:16.156Z,13.75
2023-04-21T00:48:16.192Z,15.26
2023-04-21T00:49:16.278Z,14.45
2023-04-21T00:50:16.188Z,14.26
2023-04-21T00:51:16.217Z,13.71
2023-04-21T00:52:16.171Z,14.18
2023-04-21T00:53:16.208Z,13.76
2023-04-21T00:54:16.214Z,15.47
2023-04-21T00:55:16.244Z,15.25
2023-04-21T00:56:16.288Z,12.73
2023-04-21T00:57:16.286Z,14.28
2023-04-21T00:58:16.329Z,14.36
2023-04-21T00:59:16.387Z,15.64
2023-04-21T01:00:16.342Z,14.37
2023-04-21T01:01:16.508Z,14.04
2023-04-21T01:02:16.639Z,13.98
2023-04-21T01:03:16.770Z,15.15
2023-04-21T01:04:16.608Z,16.17
2023-04-21T01:05:16.654Z,15.34
2023-04-21T01:06:16.640Z,14.43
2023-04-21T01:07:16.658Z,13.62
2023-04-21T01:08:16.759Z,15.41
2023-04-21T01:09:16.816Z,15.61
2023-04-21T01:10:16.729Z,15.63
2023-04-21T01:11:16.736Z,14.54
2023-04-21T01:12:16.871Z,14.32
2023-04-21T01:13:16.886Z,14.49
2023-04-21T01:14:16.965Z,13.88
2023-04-21T01:15:17.036Z,14.96
2023-04-21T01:16:17.075Z,13.92
2023-04-21T01:17:17.080Z,13.70
2023-04-21T01:18:17.124Z,14.63
2023-04-21T01:19:17.442Z,14.64
2023-04-21T01:20:17.250Z,14.71
2023-04-21T01:21:17.309Z,14.75
2023-04-21T01:22:17.346Z,13.60
2023-04-21T01:23:17.400Z,13.42
2023-04-21T01:24:17.428Z,14.16
2023-04-21T01:25:17.503Z,13.88
2023-04-21T01:26:17.585Z,14.99
2023-04-21T01:27:17.593Z,14.43
2023-04-21T01:28:17.661Z,14.07
2023-04-21T01:29:17.942Z,14.25
2023-04-21T01:30:17.768Z,13.87
2023-04-21T01:31:17.789Z,12.65
2023-04-21T01:32:18.304Z,13.14
2023-04-21T01:33:17.912Z,15.08
2023-04-21T01:34:17.873Z,13.99
2023-04-21T01:35:17.933Z,13.21
2023-04-21T01:36:17.979Z,13.08
2023-04-21T01:37:17.978Z,13.65
2023-04-21T01:38:19.401Z,13.17
2023-04-21T01:39:18.133Z,13.91
2023-04-21T01:40:18.070Z,14.39
2023-04-21T01:41:18.083Z,12.80
2023-04-21T01:42:18.077Z,12.22
2023-04-21T01:43:18.496Z,14.22
2023-04-21T01:44:18.154Z,12.61
2023-04-21T01:45:18.182Z,12.94
2023-04-21T01:46:18.223Z,13.19
2023-04-21T01:47:18.239Z,13.34
2023-04-21T01:48:18.309Z,13.78
2023-04-21T01:49:18.511Z,13.08
2023-04-21T01:50:18.319Z,13.90
2023-04-21T01:51:18.393Z,13.17
2023-04-21T01:52:18.824Z,13.55
2023-04-21T01:53:18.480Z,11.86
2023-04-21T01:54:18.497Z,11.91
2023-04-21T01:55:18.499Z,11.86
2023-04-21T01:56:18.590Z,12.43
2023-04-21T01:57:18.697Z,12.30
2023-04-21T01:58:18.636Z,12.47
2023-04-21T01:59:18.881Z,12.84
2023-04-21T02:00:18.711Z,13.06
2023-04-21T02:01:18.798Z,12.62
2023-04-21T02:02:18.861Z,13.20
2023-04-21T02:03:18.967Z,13.85
2023-04-21T02:04:18.891Z,13.91
2023-04-21T02:05:18.882Z,14.91
2023-04-21T02:06:18.881Z,14.13
2023-04-21T02:07:18.897Z,15.75
2023-04-21T02:08:20.142Z,15.32
2023-04-21T02:09:19.185Z,15.24
2023-04-21T02:10:18.982Z,15.26
2023-04-21T02:11:18.993Z,14.22
2023-04-21T02:12:18.993Z,13.59
2023-04-21T02:13:19.064Z,14.87
2023-04-21T02:14:19.142Z,14.68
2023-04-21T02:15:19.165Z,16.14
2023-04-21T02:16:19.253Z,15.68
2023-04-21T02:17:19.268Z,15.44
2023-04-21T02:18:19.340Z,14.66
2023-04-21T02:19:19.486Z,15.14
2023-04-21T02:20:19.398Z,14.35
2023-04-21T02:21:19.497Z,15.16
2023-04-21T02:22:19.579Z,15.02
2023-04-21T02:23:19.585Z,14.99
2023-04-21T02:24:19.631Z,15.62
2023-04-21T02:25:19.630Z,15.75
2023-04-21T02:26:19.657Z,14.41
2023-04-21T02:27:19.742Z,15.71
2023-04-21T02:28:19.847Z,16.37
2023-04-21T02:29:20.034Z,15.49
2023-04-21T02:30:19.900Z,15.20
2023-04-21T02:31:19.957Z,15.35
2023-04-21T02:32:25.798Z,16.08
2023-04-21T02:33:21.023Z,16.13
2023-04-21T02:34:19.958Z,15.22
2023-04-21T02:35:19.928Z,14.42
2023-04-21T02:36:19.993Z,15.56
2023-04-21T02:37:19.953Z,14.68
2023-04-21T02:38:19.923Z,13.86
2023-04-21T02:39:20.090Z,14.38
2023-04-21T02:40:19.888Z,13.52
2023-04-21T02:41:19.902Z,12.85
2023-04-21T02:42:19.904Z,12.57
2023-04-21T02:43:19.922Z,13.05
2023-04-21T02:44:19.901Z,14.00
2023-04-21T02:45:19.978Z,13.78
2023-04-21T02:46:20.115Z,14.98
2023-04-21T02:47:20.066Z,14.47
2023-04-21T02:48:20.115Z,13.78
2023-04-21T02:49:20.397Z,13.59
2023-04-21T02:50:20.183Z,13.21
2023-04-21T02:51:20.284Z,12.69
2023-04-21T02:52:20.235Z,12.51
2023-04-21T02:53:20.308Z,13.71
2023-04-21T02:54:20.306Z,12.41
2023-04-21T02:55:20.418Z,12.37
2023-04-21T02:56:20.424Z,12.04
2023-04-21T02:57:20.521Z,13.02
2023-04-21T02:58:20.484Z,13.07
2023-04-21T02:59:20.742Z,12.71
2023-04-21T03:00:20.597Z,14.63
2023-04-21T03:01:20.762Z,13.56
2023-04-21T03:02:20.680Z,11.81
2023-04-21T03:03:20.771Z,12.57
2023-04-21T03:04:20.859Z,13.31
2023-04-21T03:05:20.715Z,12.12
2023-04-21T03:06:20.811Z,13.45
2023-04-21T03:07:20.848Z,12.14
2023-04-21T03:08:20.865Z,13.60
2023-04-21T03:09:21.086Z,13.37
2023-04-21T03:10:20.997Z,13.92
2023-04-21T03:11:20.990Z,13.53
2023-04-21T03:12:21.091Z,12.99
2023-04-21T03:13:21.145Z,13.25
2023-04-21T03:14:21.147Z,13.39
2023-04-21T03:15:21.228Z,13.61
2023-04-21T03:16:21.306Z,13.44
2023-04-21T03:17:21.332Z,13.25
2023-04-21T03:18:21.372Z,13.47
2023-04-21T03:19:21.525Z,13.93
2023-04-21T03:20:21.461Z,13.40
2023-04-21T03:21:21.467Z,13.68
2023-04-21T03:22:21.482Z,14.40
2023-04-21T03:23:21.530Z,13.91
2023-04-21T03:24:21.596Z,14.17
2023-04-21T03:25:21.618Z,14.37
2023-04-21T03:26:21.646Z,13.32
2023-04-21T03:27:21.720Z,13.85
2023-04-21T03:28:21.805Z,13.71
2023-04-21T03:29:21.923Z,12.92
2023-04-21T03:30:21.885Z,14.00
2023-04-21T03:31:21.917Z,12.92
2023-04-21T03:32:22.118Z,12.27
2023-04-21T03:33:22.016Z,12.52
2023-04-21T03:34:22.083Z,12.76
2023-04-21T03:35:22.112Z,12.20
2023-04-21T03:36:22.186Z,12.14
2023-04-21T03:37:22.335Z,13.29
2023-04-21T03:38:22.431Z,12.84
2023-04-21T03:39:22.509Z,12.74
2023-04-21T03:40:22.414Z,11.68
2023-04-21T03:41:22.474Z,13.16
2023-04-21T03:42:22.506Z,12.18
2023-04-21T03:43:22.594Z,13.98
2023-04-21T03:44:22.625Z,12.19
2023-04-21T03:45:22.762Z,13.08
2023-04-21T03:46:22.827Z,13.74
2023-04-21T03:47:22.825Z,13.17
2023-04-21T03:48:22.895Z,13.67
2023-04-21T03:49:23.070Z,13.84
2023-04-21T03:50:22.934Z,13.07
2023-04-21T03:51:22.981Z,13.49
2023-04-21T03:52:23.018Z,12.69
2023-04-21T03:53:22.989Z,13.70
2023-04-21T03:54:23.038Z,12.84
2023-04-21T03:55:23.041Z,12.62
2023-04-21T03:56:23.070Z,12.79
2023-04-21T03:57:23.048Z,13.03
2023-04-21T03:58:23.088Z,12.37
2023-04-21T03:59:23.069Z,11.76
2023-04-21T04:00:23.095Z,13.59
2023-04-21T04:01:23.051Z,13.25
2023-04-21T04:02:23.265Z,13.42
2023-04-21T04:03:23.828Z,12.76
2023-04-21T04:04:23.355Z,12.95
2023-04-21T04:05:23.157Z,14.52
2023-04-21T04:06:23.111Z,13.94
2023-04-21T04:07:23.121Z,12.20
2023-04-21T04:08:23.199Z,12.75
2023-04-21T04:09:23.156Z,13.59
2023-04-21T04:10:23.187Z,12.54
2023-04-21T04:11:23.106Z,13.09
2023-04-21T04:12:23.285Z,12.51
2023-04-21T04:13:23.163Z,12.19
2023-04-21T04:14:23.124Z,12.90
2023-04-21T04:15:23.161Z,12.58
2023-04-21T04:16:23.152Z,12.75
2023-04-21T04:17:23.256Z,13.95
2023-04-21T04:18:23.142Z,11.27
2023-04-21T04:19:23.259Z,12.46
2023-04-21T04:20:23.159Z,11.64
2023-04-21T04:21:23.205Z,13.48
2023-04-21T04:22:23.182Z,14.10
2023-04-21T04:23:23.171Z,13.97
2023-04-21T04:24:23.213Z,12.28
2023-04-21T04:25:23.204Z,13.41
2023-04-21T04:26:23.202Z,13.11
2023-04-21T04:27:23.222Z,13.37
2023-04-21T04:28:23.277Z,13.73
2023-04-21T04:29:23.256Z,13.26
2023-04-21T04:30:23.264Z,12.25
2023-04-21T04:31:23.308Z,12.44
2023-04-21T04:32:23.282Z,12.90
2023-04-21T04:33:23.319Z,14.44
2023-04-21T04:34:23.341Z,13.01
2023-04-21T04:35:23.255Z,12.62
2023-04-21T04:36:23.238Z,14.42
2023-04-21T04:37:23.253Z,12.89
2023-04-21T04:38:23.278Z,13.43
2023-04-21T04:39:23.280Z,13.73
2023-04-21T04:40:23.265Z,13.53
2023-04-21T04:41:23.280Z,13.80
2023-04-21T04:42:23.294Z,13.14
2023-04-21T04:43:23.303Z,13.22
2023-04-21T04:44:23.300Z,15.14
2023-04-21T04:45:23.265Z,15.01
2023-04-21T04:46:23.427Z,15.22
2023-04-21T04:47:23.284Z,15.59
2023-04-21T04:48:23.286Z,16.28
2023-04-21T04:49:24.253Z,15.81
2023-04-21T04:50:23.293Z,16.34
2023-04-21T04:51:23.252Z,16.07
2023-04-21T04:52:23.551Z,16.55
2023-04-21T04:53:23.289Z,15.99
2023-04-21T04:54:23.271Z,17.28
2023-04-21T04:55:23.269Z,17.77
2023-04-21T04:56:23.292Z,17.66
2023-04-21T04:57:24.153Z,17.40
2023-04-21T04:58:23.299Z,16.54
2023-04-21T04:59:23.365Z,17.70
2023-04-21T05:00:23.412Z,17.83
2023-04-21T05:01:23.613Z,17.05
2023-04-21T05:02:23.628Z,17.71
2023-04-21T05:03:23.695Z,16.85
2023-04-21T05:04:24.026Z,16.12
2023-04-21T05:05:23.727Z,15.09
2023-04-21T05:06:23.761Z,17.19
2023-04-21T05:07:23.826Z,15.12
2023-04-21T05:08:23.880Z,15.30
2023-04-21T05:09:23.942Z,15.89
2023-04-21T05:10:23.957Z,16.21
2023-04-21T05:11:23.989Z,16.50
2023-04-21T05:12:24.013Z,15.79
2023-04-21T05:13:24.117Z,14.56
2023-04-21T05:14:24.127Z,14.60
2023-04-21T05:15:24.271Z,14.52
2023-04-21T05:16:24.356Z,15.29
2023-04-21T05:17:24.285Z,16.01
2023-04-21T05:18:24.302Z,15.90
2023-04-21T05:19:24.422Z,15.29
2023-04-21T05:20:24.463Z,13.71
2023-04-21T05:21:24.427Z,15.55
2023-04-21T05:22:24.432Z,14.49
2023-04-21T05:23:24.552Z,14.08
2023-04-21T05:24:24.604Z,14.34
2023-04-21T05:25:24.592Z,13.67
2023-04-21T05:26:24.625Z,14.29
2023-04-21T05:27:24.597Z,13.51
2023-04-21T05:28:24.623Z,14.21
2023-04-21T05:29:24.700Z,14.43
2023-04-21T05:30:24.750Z,14.79
2023-04-21T05:31:24.830Z,15.71
2023-04-21T05:32:24.925Z,14.89
2023-04-21T05:33:24.919Z,15.01
2023-04-21T05:34:25.385Z,14.69
2023-04-21T05:35:24.933Z,15.59
2023-04-21T05:36:25.034Z,15.48
2023-04-21T05:37:25.142Z,14.87
2023-04-21T05:38:25.101Z,16.61
2023-04-21T05:39:25.137Z,15.77
2023-04-21T05:40:25.103Z,14.63
2023-04-21T05:41:25.119Z,16.09
2023-04-21T05:42:25.120Z,15.82
2023-04-21T05:43:25.123Z,14.69
2023-04-21T05:44:25.124Z,15.61
2023-04-21T05:46:35.874Z,15.42
2023-04-21T05:47:25.117Z,16.38
2023-04-21T05:48:25.098Z,15.55
2023-04-21T05:49:25.409Z,14.15
2023-04-21T05:50:25.055Z,14.66
2023-04-21T05:51:25.061Z,15.29
2023-04-21T05:52:25.065Z,15.09
2023-04-21T05:53:25.058Z,14.60
2023-04-21T05:54:25.089Z,14.71
2023-04-21T05:55:25.110Z,15.26
2023-04-21T05:56:25.064Z,15.44
2023-04-21T05:57:25.052Z,15.85
2023-04-21T05:58:25.005Z,15.33
2023-04-21T05:59:25.019Z,14.14
2023-04-21T06:00:25.026Z,15.09
2023-04-21T06:01:24.974Z,14.97
2023-04-21T06:02:25.185Z,15.49
2023-04-21T06:03:25.059Z,16.57
2023-04-21T06:04:25.329Z,15.51
2023-04-21T06:05:25.021Z,15.86
2023-04-21T06:06:24.955Z,16.09
2023-04-21T06:07:24.965Z,15.06
2023-04-21T06:08:24.949Z,15.99
2023-04-21T06:09:24.968Z,17.13
2023-04-21T06:10:25.125Z,16.34
2023-04-21T06:11:24.898Z,15.58
2023-04-21T06:12:24.880Z,17.22
2023-04-21T06:13:24.950Z,16.89
2023-04-21T06:14:24.990Z,17.70
2023-04-21T06:15:24.966Z,14.89
2023-04-21T06:16:24.940Z,15.76
2023-04-21T06:17:25.149Z,15.08
2023-04-21T06:18:24.960Z,15.09
2023-04-21T06:19:25.020Z,16.14
2023-04-21T06:20:24.949Z,15.76
2023-04-21T06:21:25.764Z,16.48
2023-04-21T06:22:24.929Z,14.63
2023-04-21T06:23:25.000Z,16.22
2023-04-21T06:24:25.035Z,14.08
2023-04-21T06:25:24.930Z,15.58
2023-04-21T06:26:24.933Z,15.49
2023-04-21T06:27:24.992Z,15.13
2023-04-21T06:28:25.015Z,15.18
2023-04-21T06:29:25.033Z,16.01
2023-04-21T06:30:24.978Z,15.01
2023-04-21T06:31:24.990Z,15.21
2023-04-21T06:32:25.026Z,14.43
2023-04-21T06:33:25.048Z,13.48
2023-04-21T06:34:25.079Z,14.14
2023-04-21T06:35:25.105Z,14.50
2023-04-21T06:36:25.118Z,14.11
2023-04-21T06:37:25.194Z,14.17
2023-04-21T06:38:25.278Z,14.68
2023-04-21T06:39:25.279Z,14.18
2023-04-21T06:40:25.366Z,14.61
2023-04-21T06:41:25.420Z,15.39
2023-04-21T06:42:25.536Z,15.64
2023-04-21T06:43:25.595Z,14.62
2023-04-21T06:44:25.944Z,14.17
2023-04-21T06:45:25.593Z,14.50
2023-04-21T06:46:26.312Z,14.35
2023-04-21T06:47:26.040Z,14.21
2023-04-21T06:48:25.827Z,14.88
2023-04-21T06:49:25.818Z,15.33
2023-04-21T06:50:25.781Z,14.18
2023-04-21T06:51:25.834Z,14.05
2023-04-21T06:52:25.840Z,13.98
2023-04-21T06:53:25.896Z,13.41
2023-04-21T06:54:25.963Z,13.20
2023-04-21T06:55:25.962Z,13.26
2023-04-21T06:56:26.082Z,13.87
2023-04-21T06:57:26.029Z,14.12
2023-04-21T06:58:26.050Z,14.20
2023-04-21T06:59:26.113Z,12.99
2023-04-21T07:00:26.213Z,12.82
2023-04-21T07:01:26.154Z,13.73
2023-04-21T07:02:26.194Z,12.91
2023-04-21T07:03:26.231Z,13.87
2023-04-21T07:04:26.238Z,13.58
2023-04-21T07:05:26.243Z,13.00
2023-04-21T07:06:26.361Z,12.94
2023-04-21T07:07:26.397Z,13.35
2023-04-21T07:08:26.411Z,13.25
2023-04-21T07:09:34.508Z,13.92
2023-04-21T07:10:26.471Z,13.17
2023-04-21T07:11:26.431Z,11.68
2023-04-21T07:12:26.339Z,12.58
2023-04-21T07:13:26.381Z,13.35
2023-04-21T07:14:26.486Z,14.16
2023-04-21T07:15:26.416Z,12.75
2023-04-21T07:16:26.419Z,11.19
2023-04-21T07:17:26.512Z,12.77
2023-04-21T07:18:26.471Z,12.08
2023-04-21T07:19:26.523Z,11.98
2023-04-21T07:20:26.647Z,12.28
2023-04-21T07:21:26.529Z,13.20
2023-04-21T07:22:26.609Z,12.51
2023-04-21T07:23:26.710Z,12.14
2023-04-21T07:24:26.640Z,11.97
2023-04-21T07:25:26.661Z,13.41
2023-04-21T07:26:26.625Z,12.33
2023-04-21T07:27:26.702Z,12.98
2023-04-21T07:28:26.678Z,12.28
2023-04-21T07:29:27.007Z,12.27
2023-04-21T07:30:27.043Z,12.61
2023-04-21T07:31:27.046Z,13.42
2023-04-21T07:32:27.292Z,12.45
2023-04-21T07:33:27.221Z,11.51
2023-04-21T07:34:26.987Z,12.40
2023-04-21T07:35:27.116Z,11.32
2023-04-21T07:36:27.126Z,12.21
2023-04-21T07:37:27.117Z,13.02
2023-04-21T07:38:27.211Z,11.87
2023-04-21T07:39:27.266Z,11.38
2023-04-21T07:40:27.446Z,11.17
2023-04-21T07:41:27.411Z,11.90
2023-04-21T07:42:27.565Z,13.91
2023-04-21T07:43:27.404Z,15.63
2023-04-21T07:44:27.458Z,15.75
2023-04-21T07:45:27.975Z,16.34
2023-04-21T07:46:27.609Z,16.01
2023-04-21T07:47:27.709Z,17.24
2023-04-21T07:48:27.649Z,16.69
2023-04-21T07:49:27.745Z,16.04
2023-04-21T07:50:27.717Z,14.71
2023-04-21T07:51:27.803Z,17.09
2023-04-21T07:52:27.792Z,15.78
2023-04-21T07:53:27.869Z,15.30
2023-04-21T07:54:28.510Z,15.60
2023-04-21T07:55:27.961Z,15.32
2023-04-21T07:56:27.895Z,14.54
2023-04-21T07:57:35.648Z,14.61
2023-04-21T07:58:28.657Z,14.53
2023-04-21T07:59:28.424Z,13.02
2023-04-21T08:00:28.006Z,14.00
2023-04-21T08:01:27.911Z,14.35
2023-04-21T08:02:28.005Z,13.57
2023-04-21T08:03:28.060Z,14.50
2023-04-21T08:04:27.919Z,13.57
2023-04-21T08:05:31.091Z,14.00
2023-04-21T08:06:28.939Z,13.98
2023-04-21T08:07:27.802Z,15.27
2023-04-21T08:08:28.745Z,15.74
2023-04-21T08:09:27.850Z,15.90
2023-04-21T08:10:27.940Z,15.89
2023-04-21T08:11:27.951Z,15.51
2023-04-21T08:12:27.954Z,15.87
2023-04-21T08:13:28.024Z,15.74
2023-04-21T08:14:28.081Z,15.64
2023-04-21T08:15:28.159Z,16.44
2023-04-21T08:16:28.339Z,16.92
2023-04-21T08:17:28.202Z,15.59
2023-04-21T08:18:28.328Z,16.02
2023-04-21T08:19:28.326Z,15.07
2023-04-21T08:20:28.291Z,15.81
2023-04-21T08:21:30.842Z,15.03
2023-04-21T08:22:28.248Z,16.13
2023-04-21T08:23:28.232Z,15.56
2023-04-21T08:24:28.275Z,15.29
2023-04-21T08:25:28.213Z,15.46
2023-04-21T08:26:28.221Z,16.33
2023-04-21T08:27:28.223Z,16.48
2023-04-21T08:28:28.217Z,15.47
2023-04-21T08:29:28.520Z,16.38
2023-04-21T08:30:28.466Z,15.71
2023-04-21T08:31:28.309Z,15.08
2023-04-21T08:32:28.332Z,14.72
2023-04-21T08:33:28.151Z,14.66
2023-04-21T08:34:28.228Z,15.53
2023-04-21T08:35:28.257Z,15.69
2023-04-21T08:36:29.963Z,15.60
2023-04-21T08:37:28.343Z,16.81
2023-04-21T08:38:28.219Z,16.75
2023-04-21T08:39:28.233Z,15.76
2023-04-21T08:40:28.577Z,15.39
2023-04-21T08:41:28.316Z,15.41
2023-04-21T08:42:28.381Z,14.70
2023-04-21T08:43:28.355Z,15.69
2023-04-21T08:44:28.329Z,13.91
2023-04-21T08:45:28.551Z,14.99
2023-04-21T08:46:28.628Z,14.64
2023-04-21T08:47:28.454Z,14.13
2023-04-21T08:48:28.465Z,13.42
2023-04-21T08:49:28.866Z,13.63
2023-04-21T08:50:28.992Z,13.84
2023-04-21T08:51:28.842Z,13.54
2023-04-21T08:52:28.508Z,13.43
2023-04-21T08:53:28.594Z,15.21
2023-04-21T08:54:30.009Z,13.55
2023-04-21T08:55:29.026Z,13.97
2023-04-21T08:56:28.529Z,13.36
2023-04-21T08:57:28.608Z,13.86
2023-04-21T08:58:28.640Z,14.10
2023-04-21T08:59:28.659Z,14.09
2023-04-21T09:00:29.082Z,13.72
2023-04-21T09:01:28.817Z,13.45
2023-04-21T09:02:28.815Z,13.64
2023-04-21T09:03:28.800Z,13.37
2023-04-21T09:04:28.880Z,12.65
2023-04-21T09:05:28.992Z,13.57
2023-04-21T09:06:28.807Z,12.45
2023-04-21T09:07:28.862Z,12.87
2023-04-21T09:08:28.876Z,12.59
2023-04-21T09:09:29.002Z,13.03
2023-04-21T09:10:28.927Z,12.51
2023-04-21T09:11:28.961Z,12.59
2023-04-21T09:12:28.954Z,12.46
2023-04-21T09:13:29.022Z,12.82
2023-04-21T09:14:28.987Z,11.24
2023-04-21T09:15:29.543Z,10.30
2023-04-21T09:16:29.061Z,10.20
2023-04-21T09:17:29.121Z,11.98
2023-04-21T09:18:29.144Z,12.04
2023-04-21T09:19:29.160Z,12.53
2023-04-21T09:20:29.162Z,11.94
2023-04-21T09:21:32.080Z,12.11
2023-04-21T09:22:29.186Z,11.23
2023-04-21T09:23:29.217Z,11.85
2023-04-21T09:24:29.205Z,10.53
2023-04-21T09:25:29.148Z,11.56
2023-04-21T09:26:29.549Z,10.76
2023-04-21T09:27:29.245Z,9.72
2023-04-21T09:28:29.148Z,10.32
2023-04-21T09:29:29.192Z,11.40
2023-04-21T09:30:29.199Z,10.60
2023-04-21T09:31:29.309Z,10.34
2023-04-21T09:32:29.189Z,10.03
2023-04-21T09:33:32.617Z,8.56
2023-04-21T09:34:30.128Z,9.22
2023-04-21T09:35:29.084Z,8.92
2023-04-21T09:36:29.108Z,7.94
2023-04-21T09:37:29.111Z,7.58
2023-04-21T09:38:29.092Z,8.84
2023-04-21T09:39:45.634Z,7.94
2023-04-21T09:40:30.079Z,8.52
2023-04-21T09:41:29.527Z,8.90
2023-04-21T09:42:29.102Z,9.83
2023-04-21T09:43:29.027Z,7.12
2023-04-21T09:44:31.912Z,7.05
2023-04-21T09:45:39.556Z,5.72
2023-04-21T09:46:30.015Z,3.15
2023-04-21T09:47:29.033Z,2.10
2023-04-21T09:48:29.004Z,1.98
2023-04-21T09:49:29.063Z,1.86
2023-04-21T09:50:54.380Z,1.82
2023-04-21T09:51:46.093Z,1.71
2023-04-21T09:52:29.960Z,1.43
2023-04-21T09:53:29.114Z,1.70
2023-04-21T09:54:30.332Z,1.36
2023-04-21T09:55:29.003Z,1.56
2023-04-21T09:56:29.008Z,1.55
2023-04-21T09:57:29.028Z,1.61
2023-04-21T09:58:28.950Z,1.35
2023-04-21T09:59:28.925Z,1.75
2023-04-21T10:00:28.957Z,1.03
2023-04-21T10:01:28.972Z,1.62
2023-04-21T10:02:29.060Z,1.36
2023-04-21T10:03:29.079Z,1.09
2023-04-21T10:04:30.048Z,1.50
2023-04-21T10:05:28.978Z,0.78
2023-04-21T10:06:28.933Z,1.04
2023-04-21T10:07:28.902Z,0.84
2023-04-21T10:08:28.881Z,0.77
2023-04-21T10:09:28.852Z,0.80
2023-04-21T10:10:28.852Z,0.78
2023-04-21T10:11:28.860Z,0.68
2023-04-21T10:12:28.856Z,0.77
2023-04-21T10:13:29.425Z,0.81
2023-04-21T10:14:28.812Z,0.86
2023-04-21T10:15:28.861Z,0.43
2023-04-21T10:16:28.986Z,0.54
2023-04-21T10:17:28.891Z,0.74
2023-04-21T10:18:28.882Z,0.63
2023-04-21T10:19:28.923Z,0.66
2023-04-21T10:20:36.545Z,0.38
2023-04-21T10:21:29.024Z,0.35
2023-04-21T10:22:28.895Z,0.46
2023-04-21T10:23:28.924Z,0.55
2023-04-21T10:24:28.891Z,0.54
2023-04-21T10:25:28.892Z,0.47
2023-04-21T10:26:29.115Z,0.73
2023-04-21T10:27:28.876Z,0.84
2023-04-21T10:28:28.865Z,0.67
2023-04-21T10:29:31.220Z,0.65
2023-04-21T10:30:31.393Z,0.70
2023-04-21T10:31:29.113Z,0.43
2023-04-21T10:32:28.889Z,0.68
2023-04-21T10:33:28.976Z,0.42
2023-04-21T10:34:28.810Z,0.55
2023-04-21T10:35:29.105Z,0.64
2023-04-21T10:36:29.081Z,0.79
2023-04-21T10:37:28.838Z,0.45
2023-04-21T10:38:28.792Z,0.60
2023-04-21T10:39:28.856Z,0.68
2023-04-21T10:40:42.501Z,0.50
2023-04-21T10:41:30.069Z,0.44
2023-04-21T10:42:28.815Z,0.69
2023-04-21T10:43:28.763Z,0.42
2023-04-21T10:44:28.960Z,0.97
2023-04-21T10:45:28.772Z,0.48
2023-04-21T10:46:29.659Z,0.44
2023-04-21T10:47:28.787Z,0.58
2023-04-21T10:48:28.758Z,0.56
2023-04-21T10:49:28.718Z,0.46
2023-04-21T10:50:28.751Z,0.80
2023-04-21T10:51:28.726Z,0.73
2023-04-21T10:52:30.477Z,0.68
2023-04-21T10:53:28.848Z,0.81
2023-04-21T10:54:29.504Z,0.42
2023-04-21T10:55:28.905Z,0.64
2023-04-21T10:56:29.079Z,0.96
2023-04-21T10:57:29.033Z,0.92
2023-04-21T10:58:29.020Z,0.46
2023-04-21T10:59:28.992Z,0.62
2023-04-21T11:00:29.223Z,0.56
2023-04-21T11:01:29.097Z,0.59
2023-04-21T11:02:29.730Z,0.66
2023-04-21T11:03:29.233Z,0.33
2023-04-21T11:04:29.439Z,0.46
2023-04-21T11:05:29.239Z,0.43
2023-04-21T11:06:29.272Z,0.55
2023-04-21T11:07:30.588Z,0.49
2023-04-21T11:08:29.248Z,0.40
2023-04-21T11:09:39.925Z,0.56
2023-04-21T11:10:29.265Z,0.52
2023-04-21T11:11:29.279Z,0.56
2023-04-21T11:12:29.653Z,0.57
2023-04-21T11:13:29.283Z,0.43
2023-04-21T11:14:29.259Z,0.43
2023-04-21T11:15:29.254Z,0.54
2023-04-21T11:16:29.291Z,0.40
2023-04-21T11:17:29.682Z,0.55
2023-04-21T11:18:29.229Z,0.67
2023-04-21T11:19:29.259Z,0.63
2023-04-21T11:20:29.203Z,0.64
2023-04-21T11:21:29.226Z,0.49
2023-04-21T11:22:29.621Z,0.40
2023-04-21T11:23:29.219Z,0.34
2023-04-21T11:24:29.229Z,0.60
2023-04-21T11:25:29.136Z,0.61
2023-04-21T11:26:29.326Z,0.40
2023-04-21T11:27:29.641Z,0.54
2023-04-21T11:28:29.196Z,0.56
2023-04-21T11:29:29.141Z,0.48
2023-04-21T11:30:29.976Z,0.56
2023-04-21T11:31:29.344Z,0.62
2023-04-21T11:32:29.667Z,0.52
2023-04-21T11:33:29.264Z,0.61
2023-04-21T11:34:29.300Z,0.40
2023-04-21T11:35:29.589Z,0.45
2023-04-21T11:36:29.307Z,0.67
2023-04-21T11:37:29.399Z,0.56
2023-04-21T11:38:29.417Z,0.49
2023-04-21T11:39:29.428Z,0.62
2023-04-21T11:40:29.520Z,0.61
2023-04-21T11:41:29.539Z,0.43
2023-04-21T11:42:29.541Z,0.50
2023-04-21T11:43:29.580Z,0.72
2023-04-21T11:44:29.664Z,0.51
2023-04-21T11:45:29.924Z,0.46
2023-04-21T11:46:29.691Z,0.93
2023-04-21T11:47:29.739Z,0.52
2023-04-21T11:48:29.686Z,0.50
2023-04-21T11:49:29.746Z,0.66
2023-04-21T11:50:29.743Z,0.50
2023-04-21T11:51:29.770Z,0.54
2023-04-21T11:52:29.834Z,0.43
2023-04-21T11:53:29.851Z,0.49
2023-04-21T11:54:29.847Z,0.69
2023-04-21T11:55:29.936Z,0.55
2023-04-21T11:56:29.940Z,0.48
2023-04-21T11:57:29.954Z,0.42
2023-04-21T11:58:29.972Z,0.58
2023-04-21T11:59:30.040Z,0.60
2023-04-21T12:00:30.090Z,0.56
2023-04-21T12:01:30.135Z,0.45
2023-04-21T12:02:30.345Z,0.41
2023-04-21T12:03:30.441Z,0.58
2023-04-21T12:04:32.176Z,0.66
2023-04-21T12:05:30.367Z,0.77
2023-04-21T12:06:30.202Z,0.65
2023-04-21T12:07:30.208Z,0.62
2023-04-21T12:08:30.147Z,0.61
2023-04-21T12:09:30.330Z,0.50
2023-04-21T12:10:30.135Z,0.61
2023-04-21T12:11:30.165Z,0.28
2023-04-21T12:12:30.174Z,0.30
2023-04-21T12:13:30.171Z,0.61
2023-04-21T12:14:30.152Z,0.52
2023-04-21T12:15:30.169Z,0.70
2023-04-21T12:16:30.181Z,0.83
2023-04-21T12:17:30.196Z,0.65
2023-04-21T12:18:30.117Z,0.52
2023-04-21T12:19:30.180Z,0.74
2023-04-21T12:20:30.484Z,0.63
2023-04-21T12:21:30.101Z,0.58
2023-04-21T12:22:30.135Z,0.78
2023-04-21T12:23:30.087Z,0.46
2023-04-21T12:24:30.050Z,0.70
2023-04-21T12:25:30.072Z,0.55
2023-04-21T12:26:30.053Z,0.52
2023-04-21T12:27:30.055Z,0.65
2023-04-21T12:28:30.109Z,0.64
2023-04-21T12:29:30.041Z,0.80
2023-04-21T12:30:30.327Z,0.89
2023-04-21T12:31:30.050Z,0.42
2023-04-21T12:32:30.080Z,0.85
2023-04-21T12:33:30.144Z,0.39
2023-04-21T12:34:30.003Z,0.78
2023-04-21T12:35:29.989Z,0.29
2023-04-21T12:36:30.054Z,0.38
2023-04-21T12:37:29.999Z,0.61
2023-04-21T12:38:29.946Z,0.50
2023-04-21T12:39:30.120Z,0.33
2023-04-21T12:40:29.969Z,0.46
2023-04-21T12:41:29.973Z,0.48
2023-04-21T12:42:30.068Z,0.40
2023-04-21T12:43:30.096Z,0.27
2023-04-21T12:44:30.104Z,0.49
2023-04-21T12:45:30.798Z,0.37
2023-04-21T12:46:30.219Z,0.53
2023-04-21T12:47:30.287Z,0.49
2023-04-21T12:48:30.201Z,0.37
2023-04-21T12:49:30.456Z,0.46
2023-04-21T12:50:30.241Z,1.08
2023-04-21T12:51:30.292Z,0.51
2023-04-21T12:52:30.293Z,0.58
2023-04-21T12:53:31.327Z,0.48
2023-04-21T12:54:30.348Z,0.46
2023-04-21T12:55:30.683Z,0.32
2023-04-21T12:56:30.394Z,0.57
2023-04-21T12:57:30.479Z,0.30
2023-04-21T12:58:30.568Z,0.87
2023-04-21T12:59:30.673Z,0.62
2023-04-21T13:00:30.584Z,0.46